createdAt,value
2022-11-26T00:04:59.659Z,100.00
2022-11-26T00:10:25.610Z,100.00
2022-11-26T00:15:48.097Z,100.00
2022-11-26T00:21:20.701Z,100.00
2022-11-26T00:26:42.533Z,100.00
2022-11-26T00:32:14.951Z,100.00
2022-11-26T00:37:48.456Z,100.00
2022-11-26T00:43:15.006Z,100.00
2022-11-26T00:48:36.787Z,100.00
2022-11-26T00:54:01.726Z,100.00
2022-11-26T00:59:23.586Z,100.00
2022-11-26T01:04:45.481Z,100.00
2022-11-26T01:10:21.058Z,100.00
2022-11-26T01:15:42.834Z,100.00
2022-11-26T01:21:04.683Z,100.00
2022-11-26T01:26:35.072Z,100.00
2022-11-26T01:31:56.981Z,100.00
2022-11-26T01:37:18.815Z,100.00
2022-11-26T01:42:43.854Z,100.00
2022-11-26T01:48:26.386Z,100.00
2022-11-26T01:53:52.563Z,100.00
2022-11-26T01:59:34.402Z,100.00
2022-11-26T02:04:59.334Z,100.00
2022-11-26T02:10:21.161Z,100.00
2022-11-26T02:16:07.115Z,100.00
2022-11-26T02:21:32.404Z,100.00
2022-11-26T02:27:05.271Z,100.00
2022-11-26T02:32:59.641Z,100.00
2022-11-26T02:38:24.289Z,100.00
2022-11-26T02:43:47.076Z,100.00
2022-11-26T02:49:12.329Z,100.00
2022-11-26T02:54:36.730Z,100.00
2022-11-26T02:59:58.785Z,100.00
2022-11-26T03:05:20.970Z,100.00
2022-11-26T03:10:42.855Z,100.00
2022-11-26T03:16:05.024Z,100.00
2022-11-26T03:21:27.072Z,100.00
2022-11-26T03:26:48.839Z,100.00
2022-11-26T03:32:10.593Z,100.00
2022-11-26T03:37:32.385Z,100.00
2022-11-26T03:42:54.144Z,100.00
2022-11-26T03:48:16.082Z,100.00
2022-11-26T03:53:38.281Z,100.00
2022-11-26T03:59:00.149Z,100.00
2022-11-26T04:04:21.986Z,100.00
2022-11-26T04:09:43.974Z,100.00
2022-11-26T04:15:06.199Z,100.00
2022-11-26T04:20:28.366Z,100.00
2022-11-26T04:25:50.187Z,100.00
2022-11-26T04:31:11.975Z,100.00
2022-11-26T04:36:33.775Z,100.00
2022-11-26T04:41:55.589Z,100.00
2022-11-26T04:47:17.526Z,100.00
2022-11-26T04:52:39.305Z,100.00
2022-11-26T04:58:01.102Z,100.00
2022-11-26T05:03:22.960Z,100.00
2022-11-26T05:08:44.750Z,100.00
2022-11-26T05:14:06.723Z,100.00
2022-11-26T05:19:28.691Z,100.00
2022-11-26T05:24:50.572Z,100.00
2022-11-26T05:30:12.879Z,100.00
2022-11-26T05:35:34.675Z,100.00
2022-11-26T05:40:56.586Z,100.00
2022-11-26T05:46:18.947Z,100.00
2022-11-26T05:51:40.771Z,100.00
2022-11-26T05:57:02.623Z,100.00
2022-11-26T06:02:24.528Z,100.00
2022-11-26T06:07:46.430Z,100.00
2022-11-26T06:13:08.286Z,100.00
2022-11-26T06:18:30.098Z,100.00
2022-11-26T06:23:58.920Z,100.00
2022-11-26T06:29:27.573Z,100.00
2022-11-26T06:34:53.760Z,100.00
2022-11-26T06:40:19.051Z,100.00
2022-11-26T06:45:40.865Z,100.00
2022-11-26T06:51:08.095Z,100.00
2022-11-26T06:56:29.991Z,100.00
2022-11-26T07:01:51.936Z,100.00
2022-11-26T07:07:14.047Z,100.00
2022-11-26T07:12:35.944Z,100.00
2022-11-26T07:17:58.929Z,100.00
2022-11-26T07:23:21.000Z,100.00
2022-11-26T07:28:42.927Z,100.00
2022-11-26T07:34:04.733Z,100.00
2022-11-26T07:39:26.498Z,100.00
2022-11-26T07:44:48.266Z,100.00
2022-11-26T07:50:10.182Z,100.00
2022-11-26T07:55:31.934Z,100.00
2022-11-26T08:00:54.917Z,100.00
2022-11-26T08:06:22.209Z,100.00
2022-11-26T08:11:44.179Z,100.00
2022-11-26T08:17:06.001Z,100.00
2022-11-26T08:22:29.652Z,100.00
2022-11-26T08:27:51.449Z,100.00
2022-11-26T08:33:14.073Z,100.00
2022-11-26T08:38:36.750Z,100.00
2022-11-26T08:44:07.504Z,100.00
2022-11-26T08:49:30.351Z,100.00
2022-11-26T08:54:52.194Z,100.00
2022-11-26T09:00:14.828Z,100.00
2022-11-26T09:05:36.627Z,100.00
2022-11-26T09:10:58.432Z,100.00
2022-11-26T09:16:22.017Z,100.00
2022-11-26T09:21:45.118Z,100.00
2022-11-26T09:27:08.302Z,100.00
2022-11-26T09:32:34.035Z,100.00
2022-11-26T09:37:56.268Z,100.00
2022-11-26T09:43:36.462Z,100.00
2022-11-26T09:49:04.115Z,100.00
2022-11-26T09:54:30.147Z,100.00
2022-11-26T09:59:53.932Z,100.00
2022-11-26T10:05:21.034Z,100.00
2022-11-26T10:10:54.489Z,100.00
2022-11-26T10:16:19.041Z,100.00
2022-11-26T10:21:59.643Z,100.00
2022-11-26T10:27:24.290Z,100.00
2022-11-26T10:32:47.882Z,100.00
2022-11-26T10:38:10.887Z,100.00
2022-11-26T10:43:32.697Z,100.00
2022-11-26T10:48:54.475Z,100.00
2022-11-26T10:54:35.172Z,100.00
2022-11-26T10:59:57.135Z,100.00
2022-11-26T11:05:20.266Z,100.00
2022-11-26T11:10:54.226Z,100.00
2022-11-26T11:16:28.636Z,100.00
2022-11-26T11:21:50.791Z,100.00
2022-11-26T11:27:28.132Z,100.00
2022-11-26T11:32:49.925Z,100.00
2022-11-26T11:38:23.904Z,100.00
2022-11-26T11:43:46.332Z,100.00
2022-11-26T11:49:25.610Z,100.00
2022-11-26T11:55:07.466Z,100.00
2022-11-26T12:00:55.270Z,100.00
2022-11-26T12:06:27.976Z,100.00
2022-11-26T12:12:00.752Z,100.00
2022-11-26T12:17:37.027Z,100.00
2022-11-26T12:23:04.866Z,100.00
2022-11-26T12:28:31.676Z,100.00
2022-11-26T12:34:07.094Z,100.00
2022-11-26T12:39:53.394Z,100.00
2022-11-26T12:45:31.811Z,100.00
2022-11-26T12:51:12.060Z,100.00
2022-11-26T12:57:02.940Z,100.00
2022-11-26T13:02:32.413Z,100.00
2022-11-26T13:08:06.300Z,100.00
2022-11-26T13:14:05.834Z,100.00
2022-11-26T13:19:30.704Z,100.00
2022-11-26T13:25:29.586Z,100.00
2022-11-26T13:31:16.923Z,100.00
2022-11-26T13:36:50.396Z,100.00
2022-11-26T13:42:21.203Z,100.00
2022-11-26T13:47:59.739Z,100.00
2022-11-26T13:53:27.119Z,100.00
2022-11-26T13:59:01.970Z,100.00
2022-11-26T14:04:23.690Z,100.00
2022-11-26T14:09:47.738Z,100.00
2022-11-26T14:15:41.299Z,100.00
2022-11-26T14:21:03.089Z,100.00
2022-11-26T14:26:27.435Z,100.00
2022-11-26T14:31:54.672Z,100.00
2022-11-26T14:37:19.608Z,100.00
2022-11-26T14:42:42.730Z,100.00
2022-11-26T14:48:05.588Z,100.00
2022-11-26T14:53:33.931Z,100.00
2022-11-26T14:59:00.117Z,100.00
2022-11-26T15:04:28.135Z,100.00
2022-11-26T15:10:03.857Z,100.00
2022-11-26T15:15:25.710Z,100.00
2022-11-26T15:20:54.675Z,100.00
2022-11-26T15:26:18.391Z,100.00
2022-11-26T15:31:43.374Z,100.00
2022-11-26T15:37:05.209Z,100.00
2022-11-26T15:42:29.815Z,100.00
2022-11-26T15:47:54.478Z,100.00
2022-11-26T15:53:22.950Z,100.00
2022-11-26T15:58:49.208Z,100.00
2022-11-26T16:04:38.220Z,100.00
2022-11-26T16:10:17.005Z,100.00
2022-11-26T16:16:04.001Z,100.00
2022-11-26T16:21:27.939Z,100.00
2022-11-26T16:26:57.648Z,100.00
2022-11-26T16:32:19.935Z,100.00
2022-11-26T16:37:45.123Z,100.00
2022-11-26T16:43:07.052Z,100.00
2022-11-26T16:48:29.262Z,100.00
2022-11-26T16:53:51.159Z,100.00
2022-11-26T16:59:22.908Z,100.00
2022-11-26T17:04:45.494Z,100.00
2022-11-26T17:10:14.388Z,100.00
2022-11-26T17:15:36.209Z,100.00
2022-11-26T17:20:57.993Z,100.00
2022-11-26T17:26:22.296Z,100.00
2022-11-26T17:31:44.091Z,100.00
2022-11-26T17:37:06.312Z,100.00
2022-11-26T17:42:32.183Z,100.00
2022-11-26T17:47:57.096Z,100.00
2022-11-26T17:53:18.954Z,100.00
2022-11-26T17:58:40.851Z,100.00
2022-11-26T18:04:02.787Z,100.00
2022-11-26T18:09:24.646Z,100.00
2022-11-26T18:14:46.544Z,100.00
2022-11-26T18:20:08.605Z,100.00
2022-11-26T18:25:33.312Z,100.00
2022-11-26T18:30:58.274Z,100.00
2022-11-26T18:36:20.745Z,99.92
2022-11-26T18:41:43.126Z,100.00
2022-11-26T18:47:09.209Z,100.00
2022-11-26T18:52:31.218Z,100.00
2022-11-26T18:57:53.194Z,100.00
2022-11-26T19:03:16.125Z,100.00
2022-11-26T19:08:38.025Z,100.00
2022-11-26T19:14:00.512Z,100.00
2022-11-26T19:19:22.779Z,100.00
2022-11-26T19:24:44.674Z,99.94
2022-11-26T19:30:08.685Z,99.85
2022-11-26T19:35:31.695Z,99.58
2022-11-26T19:40:58.737Z,98.92
2022-11-26T19:46:22.705Z,99.38
2022-11-26T19:51:45.486Z,99.14
2022-11-26T19:57:07.316Z,99.63
2022-11-26T20:02:29.216Z,99.33
2022-11-26T20:07:51.117Z,100.00
2022-11-26T20:13:13.492Z,100.00
2022-11-26T20:18:37.380Z,100.00
2022-11-26T20:24:02.432Z,100.00
2022-11-26T20:29:24.259Z,100.00
2022-11-26T20:34:46.054Z,100.00
2022-11-26T20:40:08.414Z,100.00
2022-11-26T20:45:30.327Z,100.00
2022-11-26T20:50:52.223Z,100.00
2022-11-26T20:56:14.529Z,100.00
2022-11-26T21:01:36.556Z,100.00
2022-11-26T21:06:58.440Z,100.00
2022-11-26T21:12:20.322Z,100.00
2022-11-26T21:17:42.188Z,100.00
2022-11-26T21:23:04.043Z,100.00
2022-11-26T21:28:25.856Z,100.00
2022-11-26T21:33:53.959Z,100.00
2022-11-26T21:39:16.537Z,100.00
2022-11-26T21:44:38.395Z,100.00
2022-11-26T21:50:00.316Z,100.00
2022-11-26T21:55:22.110Z,100.00
2022-11-26T22:00:43.923Z,100.00
2022-11-26T22:06:05.938Z,100.00
2022-11-26T22:11:30.402Z,100.00
2022-11-26T22:16:52.740Z,100.00
2022-11-26T22:22:14.564Z,100.00
2022-11-26T22:27:36.366Z,100.00
2022-11-26T22:32:58.142Z,100.00
2022-11-26T22:38:19.985Z,100.00
2022-11-26T22:43:42.498Z,100.00
2022-11-26T22:49:06.019Z,100.00
2022-11-26T22:54:27.856Z,100.00
2022-11-26T22:59:49.812Z,100.00
2022-11-26T23:05:11.588Z,100.00
2022-11-26T23:10:33.528Z,100.00
2022-11-26T23:15:55.393Z,100.00
2022-11-26T23:21:23.185Z,100.00
2022-11-26T23:26:45.231Z,100.00
2022-11-26T23:32:07.062Z,100.00
2022-11-26T23:37:28.925Z,100.00
2022-11-26T23:42:50.804Z,100.00
2022-11-26T23:48:12.716Z,100.00
2022-11-26T23:53:36.217Z,100.00
2022-11-26T23:59:00.611Z,100.00
